CCA1787 ZSHC-ZSWH
Flight info
| Callsign | CCA1787 |
|---|---|
| Flight time | N/A |
| Altitude | 29100 |
| Route | DSH W505 SUPAR B221 GORPI W113 IKADI A326 IKEKA IKE52F |
| Aircraft | A321/M-SDE3FGHIRWY/LB1 |
Departure
| Time | 2026-04-27 12:07 |
|---|---|
| Airport | Hangzhou Xiaoshan International Airport (ZSHC) |
Arrival
| Time | N/A |
|---|---|
| Airport | Weihai Dashuibo Airport (ZSWH) |
| Time | Latitude | Longitude | Altitude | Speed | Heading |
|---|---|---|---|---|---|
| 2026-04-27 12:06 | 30.22786 | 120.43070 | 32 ft | 140 kts | 62° |
| 2026-04-27 12:07 | 30.23294 | 120.44212 | 133 ft | 170 kts | 64° |
| 2026-04-27 12:07 | 30.23824 | 120.45417 | 719 ft | 168 kts | 63° |
| 2026-04-27 12:07 | 30.24006 | 120.46730 | 1253 ft | 170 kts | 99° |
| 2026-04-27 12:07 | 30.23780 | 120.48066 | 1841 ft | 169 kts | 97° |
| 2026-04-27 12:08 | 30.23630 | 120.49408 | 2357 ft | 169 kts | 95° |
| 2026-04-27 12:08 | 30.23498 | 120.50761 | 2857 ft | 169 kts | 95° |
| 2026-04-27 12:08 | 30.23368 | 120.52125 | 3271 ft | 176 kts | 95° |
| 2026-04-27 12:08 | 30.23226 | 120.53619 | 3462 ft | 198 kts | 95° |
| 2026-04-27 12:09 | 30.23064 | 120.55282 | 3620 ft | 219 kts | 96° |
| 2026-04-27 12:09 | 30.22875 | 120.57134 | 3825 ft | 245 kts | 99° |
| 2026-04-27 12:09 | 30.22391 | 120.59117 | 4204 ft | 266 kts | 108° |
| 2026-04-27 12:09 | 30.21820 | 120.61182 | 4925 ft | 273 kts | 108° |
| 2026-04-27 12:10 | 30.21239 | 120.63286 | 5726 ft | 277 kts | 108° |
| 2026-04-27 12:10 | 30.20651 | 120.65413 | 6537 ft | 281 kts | 108° |
| 2026-04-27 12:10 | 30.20053 | 120.67591 | 7308 ft | 285 kts | 108° |
| 2026-04-27 12:10 | 30.19452 | 120.69797 | 8057 ft | 290 kts | 108° |
| 2026-04-27 12:11 | 30.18700 | 120.71940 | 8820 ft | 294 kts | 120° |
| 2026-04-27 12:11 | 30.17605 | 120.73990 | 9515 ft | 299 kts | 123° |
| 2026-04-27 12:11 | 30.16500 | 120.76028 | 9733 ft | 300 kts | 123° |
| 2026-04-27 12:11 | 30.15765 | 120.77384 | 9777 ft | 300 kts | 123° |
| 2026-04-27 12:12 | 30.14661 | 120.79425 | 9791 ft | 300 kts | 123° |
| 2026-04-27 12:12 | 30.13560 | 120.81465 | 9793 ft | 299 kts | 123° |
| 2026-04-27 12:12 | 30.12639 | 120.83620 | 9790 ft | 300 kts | 110° |
| 2026-04-27 12:12 | 30.11956 | 120.85899 | 9792 ft | 300 kts | 110° |
| 2026-04-27 12:13 | 30.11267 | 120.88175 | 9835 ft | 302 kts | 110° |
| 2026-04-27 12:13 | 30.10558 | 120.90496 | 10253 ft | 315 kts | 110° |
| 2026-04-27 12:13 | 30.10028 | 120.93046 | 10458 ft | 340 kts | 96° |
| 2026-04-27 12:13 | 30.10074 | 120.95861 | 10631 ft | 362 kts | 80° |
| 2026-04-27 12:14 | 30.10823 | 120.98678 | 11075 ft | 373 kts | 64° |
| 2026-04-27 12:14 | 30.12199 | 121.01231 | 11649 ft | 378 kts | 52° |
| 2026-04-27 12:14 | 30.13777 | 121.03690 | 12281 ft | 384 kts | 52° |
| 2026-04-27 12:14 | 30.15380 | 121.06191 | 12901 ft | 391 kts | 52° |
| 2026-04-27 12:15 | 30.17033 | 121.08771 | 13506 ft | 397 kts | 52° |
| 2026-04-27 12:15 | 30.18666 | 121.11323 | 14068 ft | 403 kts | 52° |
| 2026-04-27 12:15 | 30.20365 | 121.13985 | 14648 ft | 408 kts | 52° |
| 2026-04-27 12:15 | 30.22032 | 121.16605 | 15231 ft | 412 kts | 52° |
| 2026-04-27 12:16 | 30.23741 | 121.19289 | 15805 ft | 417 kts | 52° |
| 2026-04-27 12:16 | 30.25470 | 121.22001 | 16364 ft | 421 kts | 52° |
| 2026-04-27 12:16 | 30.27198 | 121.24818 | 16911 ft | 426 kts | 53° |
| 2026-04-27 12:16 | 30.28837 | 121.27635 | 17455 ft | 430 kts | 55° |
| 2026-04-27 12:17 | 30.30479 | 121.30556 | 17997 ft | 434 kts | 55° |
| 2026-04-27 12:17 | 30.32118 | 121.33504 | 18479 ft | 438 kts | 55° |
| 2026-04-27 12:17 | 30.33779 | 121.36483 | 18944 ft | 441 kts | 55° |
| 2026-04-27 12:17 | 30.35457 | 121.39467 | 19401 ft | 444 kts | 55° |
| 2026-04-27 12:18 | 30.40936 | 121.49064 | 20592 ft | 450 kts | 54° |